sensor_id;sensor_type;location;lat;lon;timestamp;temperature;humidity
11043;DHT22;5574;48.786;10.120;2023-10-13T00:00:38;15.80;99.90
11043;DHT22;5574;48.786;10.120;2023-10-13T00:03:07;15.80;99.90
11043;DHT22;5574;48.786;10.120;2023-10-13T00:05:41;15.70;99.90
11043;DHT22;5574;48.786;10.120;2023-10-13T00:08:09;15.70;99.90
11043;DHT22;5574;48.786;10.120;2023-10-13T00:10:36;15.70;99.90
11043;DHT22;5574;48.786;10.120;2023-10-13T00:13:03;15.70;99.90
11043;DHT22;5574;48.786;10.120;2023-10-13T00:15:40;15.70;99.90
11043;DHT22;5574;48.786;10.120;2023-10-13T00:18:12;15.60;99.90
11043;DHT22;5574;48.786;10.120;2023-10-13T00:20:39;15.60;99.90
11043;DHT22;5574;48.786;10.120;2023-10-13T00:23:06;15.60;99.90
11043;DHT22;5574;48.786;10.120;2023-10-13T00:25:32;15.50;99.90
11043;DHT22;5574;48.786;10.120;2023-10-13T00:28:09;15.50;99.90
11043;DHT22;5574;48.786;10.120;2023-10-13T00:30:36;15.50;99.90
11043;DHT22;5574;48.786;10.120;2023-10-13T00:33:04;15.50;99.90
11043;DHT22;5574;48.786;10.120;2023-10-13T00:35:32;15.40;99.90
11043;DHT22;5574;48.786;10.120;2023-10-13T00:38:03;15.40;99.90
11043;DHT22;5574;48.786;10.120;2023-10-13T00:40:38;15.40;99.90
11043;DHT22;5574;48.786;10.120;2023-10-13T00:43:09;15.40;99.90
11043;DHT22;5574;48.786;10.120;2023-10-13T00:45:55;15.30;99.90
11043;DHT22;5574;48.786;10.120;2023-10-13T00:48:24;15.30;99.90
11043;DHT22;5574;48.786;10.120;2023-10-13T00:50:56;15.30;99.90
11043;DHT22;5574;48.786;10.120;2023-10-13T00:53:25;15.30;99.90
11043;DHT22;5574;48.786;10.120;2023-10-13T00:55:51;15.20;99.90
11043;DHT22;5574;48.786;10.120;2023-10-13T00:58:21;15.20;99.90
11043;DHT22;5574;48.786;10.120;2023-10-13T01:00:49;15.20;99.90
11043;DHT22;5574;48.786;10.120;2023-10-13T01:03:24;15.10;99.90
11043;DHT22;5574;48.786;10.120;2023-10-13T01:05:53;15.10;99.90
11043;DHT22;5574;48.786;10.120;2023-10-13T01:08:32;15.10;99.90
11043;DHT22;5574;48.786;10.120;2023-10-13T01:11:00;15.10;99.90
11043;DHT22;5574;48.786;10.120;2023-10-13T01:13:27;15.10;99.90
11043;DHT22;5574;48.786;10.120;2023-10-13T01:15:53;15.00;99.90
11043;DHT22;5574;48.786;10.120;2023-10-13T01:18:19;15.00;99.90
11043;DHT22;5574;48.786;10.120;2023-10-13T01:20:47;15.00;99.90
11043;DHT22;5574;48.786;10.120;2023-10-13T01:23:19;15.00;99.90
11043;DHT22;5574;48.786;10.120;2023-10-13T01:25:45;15.00;99.90
11043;DHT22;5574;48.786;10.120;2023-10-13T01:28:11;15.00;99.90
11043;DHT22;5574;48.786;10.120;2023-10-13T01:30:42;15.00;99.90
11043;DHT22;5574;48.786;10.120;2023-10-13T01:33:10;15.00;99.90
11043;DHT22;5574;48.786;10.120;2023-10-13T01:35:36;15.00;99.90
11043;DHT22;5574;48.786;10.120;2023-10-13T01:38:13;14.90;99.90
11043;DHT22;5574;48.786;10.120;2023-10-13T01:40:41;14.90;99.90
11043;DHT22;5574;48.786;10.120;2023-10-13T01:43:08;14.90;99.90
11043;DHT22;5574;48.786;10.120;2023-10-13T01:45:36;14.90;99.90
11043;DHT22;5574;48.786;10.120;2023-10-13T01:48:05;14.90;99.90
11043;DHT22;5574;48.786;10.120;2023-10-13T01:50:35;14.90;99.90
11043;DHT22;5574;48.786;10.120;2023-10-13T01:53:01;14.90;99.90
11043;DHT22;5574;48.786;10.120;2023-10-13T01:55:38;14.90;99.90
11043;DHT22;5574;48.786;10.120;2023-10-13T01:58:09;14.90;99.90
11043;DHT22;5574;48.786;10.120;2023-10-13T02:00:41;14.80;99.90
11043;DHT22;5574;48.786;10.120;2023-10-13T02:03:08;14.80;99.90
11043;DHT22;5574;48.786;10.120;2023-10-13T02:05:41;14.80;99.90
11043;DHT22;5574;48.786;10.120;2023-10-13T02:08:13;14.70;99.90
11043;DHT22;5574;48.786;10.120;2023-10-13T02:10:44;14.70;99.90
11043;DHT22;5574;48.786;10.120;2023-10-13T02:13:13;14.70;99.90
11043;DHT22;5574;48.786;10.120;2023-10-13T02:15:42;14.70;99.90
11043;DHT22;5574;48.786;10.120;2023-10-13T02:18:10;14.70;99.90
11043;DHT22;5574;48.786;10.120;2023-10-13T02:20:36;14.70;99.90
11043;DHT22;5574;48.786;10.120;2023-10-13T02:23:09;14.60;99.90
11043;DHT22;5574;48.786;10.120;2023-10-13T02:25:36;14.60;99.90
11043;DHT22;5574;48.786;10.120;2023-10-13T02:28:08;14.60;99.90
11043;DHT22;5574;48.786;10.120;2023-10-13T02:30:40;14.60;99.90
11043;DHT22;5574;48.786;10.120;2023-10-13T02:33:11;14.60;99.90
11043;DHT22;5574;48.786;10.120;2023-10-13T02:35:38;14.50;99.90
11043;DHT22;5574;48.786;10.120;2023-10-13T02:38:07;14.50;99.90
11043;DHT22;5574;48.786;10.120;2023-10-13T02:40:37;14.50;99.90
11043;DHT22;5574;48.786;10.120;2023-10-13T02:43:03;14.40;99.90
11043;DHT22;5574;48.786;10.120;2023-10-13T02:45:32;14.40;99.90
11043;DHT22;5574;48.786;10.120;2023-10-13T02:48:03;14.40;99.90
11043;DHT22;5574;48.786;10.120;2023-10-13T02:50:40;14.40;99.90
11043;DHT22;5574;48.786;10.120;2023-10-13T02:53:09;14.30;99.90
11043;DHT22;5574;48.786;10.120;2023-10-13T02:55:38;14.30;99.90
11043;DHT22;5574;48.786;10.120;2023-10-13T02:58:05;14.30;99.90
11043;DHT22;5574;48.786;10.120;2023-10-13T03:00:33;14.30;99.90
11043;DHT22;5574;48.786;10.120;2023-10-13T03:03:00;14.20;99.90
11043;DHT22;5574;48.786;10.120;2023-10-13T03:05:27;14.20;99.90
11043;DHT22;5574;48.786;10.120;2023-10-13T03:07:57;14.20;99.90
11043;DHT22;5574;48.786;10.120;2023-10-13T03:10:24;14.20;99.90
11043;DHT22;5574;48.786;10.120;2023-10-13T03:12:54;14.20;99.90
11043;DHT22;5574;48.786;10.120;2023-10-13T03:15:21;14.10;99.90
11043;DHT22;5574;48.786;10.120;2023-10-13T03:17:56;14.10;99.90
11043;DHT22;5574;48.786;10.120;2023-10-13T03:20:24;14.00;99.90
11043;DHT22;5574;48.786;10.120;2023-10-13T03:22:57;14.00;99.90
11043;DHT22;5574;48.786;10.120;2023-10-13T03:25:24;14.00;99.90
11043;DHT22;5574;48.786;10.120;2023-10-13T03:27:55;13.90;99.90
11043;DHT22;5574;48.786;10.120;2023-10-13T03:30:30;13.90;99.90
11043;DHT22;5574;48.786;10.120;2023-10-13T03:33:02;13.90;99.90
11043;DHT22;5574;48.786;10.120;2023-10-13T03:35:33;13.90;99.90
11043;DHT22;5574;48.786;10.120;2023-10-13T03:38:05;13.90;99.90
11043;DHT22;5574;48.786;10.120;2023-10-13T03:40:40;13.80;99.90
11043;DHT22;5574;48.786;10.120;2023-10-13T03:43:07;13.80;99.90
11043;DHT22;5574;48.786;10.120;2023-10-13T03:45:37;13.80;99.90
11043;DHT22;5574;48.786;10.120;2023-10-13T03:48:06;13.80;99.90
11043;DHT22;5574;48.786;10.120;2023-10-13T03:50:36;13.80;99.90
11043;DHT22;5574;48.786;10.120;2023-10-13T03:53:04;13.70;99.90
11043;DHT22;5574;48.786;10.120;2023-10-13T03:55:31;13.70;99.90
11043;DHT22;5574;48.786;10.120;2023-10-13T03:58:00;13.70;99.90
11043;DHT22;5574;48.786;10.120;2023-10-13T04:00:28;13.70;99.90
11043;DHT22;5574;48.786;10.120;2023-10-13T04:02:57;13.70;99.90
11043;DHT22;5574;48.786;10.120;2023-10-13T04:05:35;13.70;99.90
11043;DHT22;5574;48.786;10.120;2023-10-13T04:08:08;13.70;99.90
11043;DHT22;5574;48.786;10.120;2023-10-13T04:10:58;13.60;99.90
11043;DHT22;5574;48.786;10.120;2023-10-13T04:13:42;13.60;99.90
11043;DHT22;5574;48.786;10.120;2023-10-13T04:16:26;13.60;99.90
11043;DHT22;5574;48.786;10.120;2023-10-13T04:19:03;13.50;99.90
11043;DHT22;5574;48.786;10.120;2023-10-13T04:21:45;13.50;99.90
11043;DHT22;5574;48.786;10.120;2023-10-13T04:24:26;13.50;99.90
11043;DHT22;5574;48.786;10.120;2023-10-13T04:27:10;13.50;99.90
11043;DHT22;5574;48.786;10.120;2023-10-13T04:30:06;13.50;99.90
11043;DHT22;5574;48.786;10.120;2023-10-13T04:32:49;13.50;99.90
11043;DHT22;5574;48.786;10.120;2023-10-13T04:35:31;13.40;99.90
11043;DHT22;5574;48.786;10.120;2023-10-13T04:38:03;13.40;99.90
11043;DHT22;5574;48.786;10.120;2023-10-13T04:40:45;13.40;99.90
11043;DHT22;5574;48.786;10.120;2023-10-13T04:43:24;13.30;99.90
11043;DHT22;5574;48.786;10.120;2023-10-13T04:46:09;13.30;99.90
11043;DHT22;5574;48.786;10.120;2023-10-13T04:48:50;13.30;99.90
11043;DHT22;5574;48.786;10.120;2023-10-13T04:51:22;13.30;99.90
11043;DHT22;5574;48.786;10.120;2023-10-13T04:54:15;13.20;99.90
11043;DHT22;5574;48.786;10.120;2023-10-13T04:56:52;13.20;99.90
11043;DHT22;5574;48.786;10.120;2023-10-13T04:59:25;13.10;99.90
11043;DHT22;5574;48.786;10.120;2023-10-13T05:02:24;13.10;99.90
11043;DHT22;5574;48.786;10.120;2023-10-13T05:05:21;13.10;99.90
11043;DHT22;5574;48.786;10.120;2023-10-13T05:08:05;13.10;99.90
11043;DHT22;5574;48.786;10.120;2023-10-13T05:10:49;13.10;99.90
11043;DHT22;5574;48.786;10.120;2023-10-13T05:13:35;13.10;99.90
11043;DHT22;5574;48.786;10.120;2023-10-13T05:16:19;13.10;99.90
11043;DHT22;5574;48.786;10.120;2023-10-13T05:19:03;13.10;99.90
11043;DHT22;5574;48.786;10.120;2023-10-13T05:21:47;13.10;99.90
11043;DHT22;5574;48.786;10.120;2023-10-13T05:24:31;13.20;99.90
11043;DHT22;5574;48.786;10.120;2023-10-13T05:27:15;13.20;99.90
11043;DHT22;5574;48.786;10.120;2023-10-13T05:30:15;13.30;99.90
11043;DHT22;5574;48.786;10.120;2023-10-13T05:33:14;13.40;99.90
11043;DHT22;5574;48.786;10.120;2023-10-13T05:35:58;13.50;99.90
11043;DHT22;5574;48.786;10.120;2023-10-13T05:38:43;13.60;99.90
11043;DHT22;5574;48.786;10.120;2023-10-13T05:41:27;13.60;99.90
11043;DHT22;5574;48.786;10.120;2023-10-13T05:44:11;13.60;99.90
11043;DHT22;5574;48.786;10.120;2023-10-13T05:46:57;13.70;99.90
11043;DHT22;5574;48.786;10.120;2023-10-13T05:49:59;13.60;99.90
11043;DHT22;5574;48.786;10.120;2023-10-13T05:52:31;13.70;99.90
11043;DHT22;5574;48.786;10.120;2023-10-13T05:55:15;13.60;99.90
11043;DHT22;5574;48.786;10.120;2023-10-13T05:58:07;13.60;99.90
11043;DHT22;5574;48.786;10.120;2023-10-13T06:00:52;13.70;99.90
11043;DHT22;5574;48.786;10.120;2023-10-13T06:03:47;13.80;99.90
11043;DHT22;5574;48.786;10.120;2023-10-13T06:06:31;13.80;99.90
11043;DHT22;5574;48.786;10.120;2023-10-13T06:09:15;13.80;99.90
11043;DHT22;5574;48.786;10.120;2023-10-13T06:11:59;13.80;99.90
11043;DHT22;5574;48.786;10.120;2023-10-13T06:14:45;13.90;99.90
11043;DHT22;5574;48.786;10.120;2023-10-13T06:17:29;14.00;99.90
11043;DHT22;5574;48.786;10.120;2023-10-13T06:20:15;13.90;99.90
11043;DHT22;5574;48.786;10.120;2023-10-13T06:22:59;13.90;99.90
11043;DHT22;5574;48.786;10.120;2023-10-13T06:25:43;13.90;99.90
11043;DHT22;5574;48.786;10.120;2023-10-13T06:28:34;13.90;99.90
11043;DHT22;5574;48.786;10.120;2023-10-13T06:31:11;13.90;99.90
11043;DHT22;5574;48.786;10.120;2023-10-13T06:33:46;13.90;99.90
11043;DHT22;5574;48.786;10.120;2023-10-13T06:36:14;14.00;99.90
11043;DHT22;5574;48.786;10.120;2023-10-13T06:38:43;14.00;99.90
11043;DHT22;5574;48.786;10.120;2023-10-13T06:41:10;14.00;99.90
11043;DHT22;5574;48.786;10.120;2023-10-13T06:43:45;14.00;99.90
11043;DHT22;5574;48.786;10.120;2023-10-13T06:46:25;14.10;99.90
11043;DHT22;5574;48.786;10.120;2023-10-13T06:48:54;14.20;99.90
11043;DHT22;5574;48.786;10.120;2023-10-13T06:51:22;14.20;99.90
11043;DHT22;5574;48.786;10.120;2023-10-13T06:53:52;14.30;99.90
11043;DHT22;5574;48.786;10.120;2023-10-13T06:56:22;14.30;99.90
11043;DHT22;5574;48.786;10.120;2023-10-13T06:58:52;14.40;99.90
11043;DHT22;5574;48.786;10.120;2023-10-13T07:01:25;14.40;99.90
11043;DHT22;5574;48.786;10.120;2023-10-13T07:03:52;14.40;99.90
11043;DHT22;5574;48.786;10.120;2023-10-13T07:06:19;14.40;99.90
11043;DHT22;5574;48.786;10.120;2023-10-13T07:08:47;14.40;99.90
11043;DHT22;5574;48.786;10.120;2023-10-13T07:11:18;14.40;99.90
11043;DHT22;5574;48.786;10.120;2023-10-13T07:13:48;14.60;99.90
11043;DHT22;5574;48.786;10.120;2023-10-13T07:16:17;14.60;99.90
11043;DHT22;5574;48.786;10.120;2023-10-13T07:18:44;14.70;99.90
11043;DHT22;5574;48.786;10.120;2023-10-13T07:21:18;14.80;99.90
11043;DHT22;5574;48.786;10.120;2023-10-13T07:23:51;14.90;99.90
11043;DHT22;5574;48.786;10.120;2023-10-13T07:26:34;15.00;99.90
11043;DHT22;5574;48.786;10.120;2023-10-13T07:29:00;15.10;99.90
11043;DHT22;5574;48.786;10.120;2023-10-13T07:31:27;15.10;99.70
11043;DHT22;5574;48.786;10.120;2023-10-13T07:33:54;15.10;99.90
11043;DHT22;5574;48.786;10.120;2023-10-13T07:36:30;15.20;99.80
11043;DHT22;5574;48.786;10.120;2023-10-13T07:39:00;15.20;99.90
11043;DHT22;5574;48.786;10.120;2023-10-13T07:41:46;15.20;99.80
11043;DHT22;5574;48.786;10.120;2023-10-13T07:44:17;15.30;99.60
11043;DHT22;5574;48.786;10.120;2023-10-13T07:46:45;15.40;99.90
11043;DHT22;5574;48.786;10.120;2023-10-13T07:49:23;15.50;99.90
11043;DHT22;5574;48.786;10.120;2023-10-13T07:51:56;15.60;99.90
11043;DHT22;5574;48.786;10.120;2023-10-13T07:54:27;15.60;99.90
11043;DHT22;5574;48.786;10.120;2023-10-13T07:56:54;15.70;99.60
11043;DHT22;5574;48.786;10.120;2023-10-13T07:59:21;15.70;99.90
11043;DHT22;5574;48.786;10.120;2023-10-13T08:01:49;15.80;99.90
11043;DHT22;5574;48.786;10.120;2023-10-13T08:04:37;15.70;99.50
11043;DHT22;5574;48.786;10.120;2023-10-13T08:07:04;15.80;99.60
11043;DHT22;5574;48.786;10.120;2023-10-13T08:09:40;15.90;99.90
11043;DHT22;5574;48.786;10.120;2023-10-13T08:12:09;15.90;99.50
11043;DHT22;5574;48.786;10.120;2023-10-13T08:14:38;16.00;99.60
11043;DHT22;5574;48.786;10.120;2023-10-13T08:17:07;16.10;99.30
11043;DHT22;5574;48.786;10.120;2023-10-13T08:19:36;16.10;99.10
11043;DHT22;5574;48.786;10.120;2023-10-13T08:22:11;16.20;99.00
11043;DHT22;5574;48.786;10.120;2023-10-13T08:24:53;16.20;99.00
11043;DHT22;5574;48.786;10.120;2023-10-13T08:27:40;16.30;99.10
11043;DHT22;5574;48.786;10.120;2023-10-13T08:30:31;16.40;99.10
11043;DHT22;5574;48.786;10.120;2023-10-13T08:33:08;16.50;99.50
11043;DHT22;5574;48.786;10.120;2023-10-13T08:35:43;16.60;99.40
11043;DHT22;5574;48.786;10.120;2023-10-13T08:38:20;16.70;99.50
11043;DHT22;5574;48.786;10.120;2023-10-13T08:40:58;16.80;99.60
11043;DHT22;5574;48.786;10.120;2023-10-13T08:43:43;16.90;99.50
11043;DHT22;5574;48.786;10.120;2023-10-13T08:46:16;17.10;99.90
11043;DHT22;5574;48.786;10.120;2023-10-13T08:48:59;17.20;99.70
11043;DHT22;5574;48.786;10.120;2023-10-13T08:51:43;17.40;99.90
11043;DHT22;5574;48.786;10.120;2023-10-13T08:54:14;17.50;98.90
11043;DHT22;5574;48.786;10.120;2023-10-13T08:57:01;17.70;97.20
11043;DHT22;5574;48.786;10.120;2023-10-13T08:59:58;18.00;97.70
11043;DHT22;5574;48.786;10.120;2023-10-13T09:02:44;18.30;97.50
11043;DHT22;5574;48.786;10.120;2023-10-13T09:05:39;18.60;99.40
11043;DHT22;5574;48.786;10.120;2023-10-13T09:08:26;18.90;95.50
11043;DHT22;5574;48.786;10.120;2023-10-13T09:11:02;19.10;95.10
11043;DHT22;5574;48.786;10.120;2023-10-13T09:13:37;19.40;97.50
11043;DHT22;5574;48.786;10.120;2023-10-13T09:16:10;19.50;94.80
11043;DHT22;5574;48.786;10.120;2023-10-13T09:18:42;19.80;93.40
11043;DHT22;5574;48.786;10.120;2023-10-13T09:21:14;19.90;93.40
11043;DHT22;5574;48.786;10.120;2023-10-13T09:24:09;20.10;92.80
11043;DHT22;5574;48.786;10.120;2023-10-13T09:26:47;20.40;92.00
11043;DHT22;5574;48.786;10.120;2023-10-13T09:29:16;20.50;92.40
11043;DHT22;5574;48.786;10.120;2023-10-13T09:31:45;20.70;93.10
11043;DHT22;5574;48.786;10.120;2023-10-13T09:34:21;20.80;90.70
11043;DHT22;5574;48.786;10.120;2023-10-13T09:36:49;21.00;90.80
11043;DHT22;5574;48.786;10.120;2023-10-13T09:39:24;21.20;90.90
11043;DHT22;5574;48.786;10.120;2023-10-13T09:41:55;21.40;90.40
11043;DHT22;5574;48.786;10.120;2023-10-13T09:44:25;21.60;90.60
11043;DHT22;5574;48.786;10.120;2023-10-13T09:46:59;21.70;91.10
11043;DHT22;5574;48.786;10.120;2023-10-13T09:49:36;22.00;90.30
11043;DHT22;5574;48.786;10.120;2023-10-13T09:52:14;22.20;92.50
11043;DHT22;5574;48.786;10.120;2023-10-13T09:54:51;22.40;92.00
11043;DHT22;5574;48.786;10.120;2023-10-13T09:57:28;22.70;88.30
11043;DHT22;5574;48.786;10.120;2023-10-13T10:00:06;22.90;89.80
11043;DHT22;5574;48.786;10.120;2023-10-13T10:02:42;23.10;89.40
11043;DHT22;5574;48.786;10.120;2023-10-13T10:05:09;23.30;86.40
11043;DHT22;5574;48.786;10.120;2023-10-13T10:07:40;23.50;85.00
11043;DHT22;5574;48.786;10.120;2023-10-13T10:10:09;23.60;83.50
11043;DHT22;5574;48.786;10.120;2023-10-13T10:12:42;23.80;85.40
11043;DHT22;5574;48.786;10.120;2023-10-13T10:15:23;24.00;82.70
11043;DHT22;5574;48.786;10.120;2023-10-13T10:17:56;24.10;81.40
11043;DHT22;5574;48.786;10.120;2023-10-13T10:20:29;24.20;82.70
11043;DHT22;5574;48.786;10.120;2023-10-13T10:23:06;24.40;83.70
11043;DHT22;5574;48.786;10.120;2023-10-13T10:25:35;24.40;86.70
11043;DHT22;5574;48.786;10.120;2023-10-13T10:28:05;24.50;86.00
11043;DHT22;5574;48.786;10.120;2023-10-13T10:30:33;24.70;83.00
11043;DHT22;5574;48.786;10.120;2023-10-13T10:33:01;24.80;80.90
11043;DHT22;5574;48.786;10.120;2023-10-13T10:35:33;24.90;82.20
11043;DHT22;5574;48.786;10.120;2023-10-13T10:38:09;24.80;76.80
11043;DHT22;5574;48.786;10.120;2023-10-13T10:40:51;24.90;79.20
11043;DHT22;5574;48.786;10.120;2023-10-13T10:43:23;25.00;80.20
11043;DHT22;5574;48.786;10.120;2023-10-13T10:45:52;25.00;79.70
11043;DHT22;5574;48.786;10.120;2023-10-13T10:48:25;25.10;78.20
11043;DHT22;5574;48.786;10.120;2023-10-13T10:50:57;25.20;80.20
11043;DHT22;5574;48.786;10.120;2023-10-13T10:53:34;25.30;76.60
11043;DHT22;5574;48.786;10.120;2023-10-13T10:56:09;25.20;74.90
11043;DHT22;5574;48.786;10.120;2023-10-13T10:58:46;25.20;75.40
11043;DHT22;5574;48.786;10.120;2023-10-13T11:01:12;25.30;74.70
11043;DHT22;5574;48.786;10.120;2023-10-13T11:03:53;25.30;74.90
11043;DHT22;5574;48.786;10.120;2023-10-13T11:06:23;25.40;76.20
11043;DHT22;5574;48.786;10.120;2023-10-13T11:09:01;25.60;76.20
11043;DHT22;5574;48.786;10.120;2023-10-13T11:11:29;25.70;80.30
11043;DHT22;5574;48.786;10.120;2023-10-13T11:14:01;25.90;77.10
11043;DHT22;5574;48.786;10.120;2023-10-13T11:16:46;26.00;74.30
11043;DHT22;5574;48.786;10.120;2023-10-13T11:19:17;26.20;74.80
11043;DHT22;5574;48.786;10.120;2023-10-13T11:21:46;26.20;71.60
11043;DHT22;5574;48.786;10.120;2023-10-13T11:24:15;26.30;75.80
11043;DHT22;5574;48.786;10.120;2023-10-13T11:26:43;26.30;72.20
11043;DHT22;5574;48.786;10.120;2023-10-13T11:29:15;26.40;76.30
11043;DHT22;5574;48.786;10.120;2023-10-13T11:31:45;26.50;71.30
11043;DHT22;5574;48.786;10.120;2023-10-13T11:34:19;26.50;73.00
11043;DHT22;5574;48.786;10.120;2023-10-13T11:36:45;26.40;70.00
11043;DHT22;5574;48.786;10.120;2023-10-13T11:39:12;26.50;71.30
11043;DHT22;5574;48.786;10.120;2023-10-13T11:41:45;26.50;71.20
11043;DHT22;5574;48.786;10.120;2023-10-13T11:44:20;26.40;68.70
11043;DHT22;5574;48.786;10.120;2023-10-13T11:46:57;26.30;68.00
11043;DHT22;5574;48.786;10.120;2023-10-13T11:49:40;26.10;67.10
11043;DHT22;5574;48.786;10.120;2023-10-13T11:52:07;26.00;67.80
11043;DHT22;5574;48.786;10.120;2023-10-13T11:54:42;26.00;70.70
11043;DHT22;5574;48.786;10.120;2023-10-13T11:57:10;25.90;70.20
11043;DHT22;5574;48.786;10.120;2023-10-13T11:59:37;25.60;69.90
11043;DHT22;5574;48.786;10.120;2023-10-13T12:02:12;25.40;71.80
11043;DHT22;5574;48.786;10.120;2023-10-13T12:04:56;25.10;72.30
11043;DHT22;5574;48.786;10.120;2023-10-13T12:07:25;24.90;74.30
11043;DHT22;5574;48.786;10.120;2023-10-13T12:10:06;24.80;75.30
11043;DHT22;5574;48.786;10.120;2023-10-13T12:12:42;24.80;75.20
11043;DHT22;5574;48.786;10.120;2023-10-13T12:15:11;24.80;75.40
11043;DHT22;5574;48.786;10.120;2023-10-13T12:17:51;24.80;73.00
11043;DHT22;5574;48.786;10.120;2023-10-13T12:20:17;24.90;74.20
11043;DHT22;5574;48.786;10.120;2023-10-13T12:22:58;25.20;77.10
11043;DHT22;5574;48.786;10.120;2023-10-13T12:25:37;25.20;77.20
11043;DHT22;5574;48.786;10.120;2023-10-13T12:28:21;25.10;75.90
11043;DHT22;5574;48.786;10.120;2023-10-13T12:30:51;25.20;76.10
11043;DHT22;5574;48.786;10.120;2023-10-13T12:33:18;25.30;74.40
11043;DHT22;5574;48.786;10.120;2023-10-13T12:35:55;25.40;75.50
11043;DHT22;5574;48.786;10.120;2023-10-13T12:38:29;25.50;74.50
11043;DHT22;5574;48.786;10.120;2023-10-13T12:41:17;25.50;72.10
11043;DHT22;5574;48.786;10.120;2023-10-13T12:44:03;25.60;73.10
11043;DHT22;5574;48.786;10.120;2023-10-13T12:46:48;25.70;75.80
11043;DHT22;5574;48.786;10.120;2023-10-13T12:49:32;25.70;72.80
11043;DHT22;5574;48.786;10.120;2023-10-13T12:52:15;25.70;70.80
11043;DHT22;5574;48.786;10.120;2023-10-13T12:54:45;25.80;72.10
11043;DHT22;5574;48.786;10.120;2023-10-13T12:57:14;25.80;73.90
11043;DHT22;5574;48.786;10.120;2023-10-13T12:59:42;25.80;70.30
11043;DHT22;5574;48.786;10.120;2023-10-13T13:02:09;25.80;68.70
11043;DHT22;5574;48.786;10.120;2023-10-13T13:04:40;25.80;71.60
11043;DHT22;5574;48.786;10.120;2023-10-13T13:07:10;25.80;69.50
11043;DHT22;5574;48.786;10.120;2023-10-13T13:09:39;25.80;73.20
11043;DHT22;5574;48.786;10.120;2023-10-13T13:12:06;25.90;72.30
11043;DHT22;5574;48.786;10.120;2023-10-13T13:14:33;25.80;70.10
11043;DHT22;5574;48.786;10.120;2023-10-13T13:17:01;25.80;72.20
11043;DHT22;5574;48.786;10.120;2023-10-13T13:19:31;25.80;67.60
11043;DHT22;5574;48.786;10.120;2023-10-13T13:22:01;25.90;70.30
11043;DHT22;5574;48.786;10.120;2023-10-13T13:24:28;25.90;69.60
11043;DHT22;5574;48.786;10.120;2023-10-13T13:26:56;26.00;68.30
11043;DHT22;5574;48.786;10.120;2023-10-13T13:29:28;25.90;66.80
11043;DHT22;5574;48.786;10.120;2023-10-13T13:31:54;25.90;65.70
11043;DHT22;5574;48.786;10.120;2023-10-13T13:34:22;26.00;71.00
11043;DHT22;5574;48.786;10.120;2023-10-13T13:36:49;25.90;71.10
11043;DHT22;5574;48.786;10.120;2023-10-13T13:39:19;26.00;67.40
11043;DHT22;5574;48.786;10.120;2023-10-13T13:41:54;26.00;68.30
11043;DHT22;5574;48.786;10.120;2023-10-13T13:44:23;26.10;71.70
11043;DHT22;5574;48.786;10.120;2023-10-13T13:46:55;25.90;75.00
11043;DHT22;5574;48.786;10.120;2023-10-13T13:49:24;25.90;71.40
11043;DHT22;5574;48.786;10.120;2023-10-13T13:52:05;25.80;74.10
11043;DHT22;5574;48.786;10.120;2023-10-13T13:54:31;25.80;70.60
11043;DHT22;5574;48.786;10.120;2023-10-13T13:56:58;25.80;68.90
11043;DHT22;5574;48.786;10.120;2023-10-13T13:59:25;25.80;69.80
11043;DHT22;5574;48.786;10.120;2023-10-13T14:02:00;25.80;64.80
11043;DHT22;5574;48.786;10.120;2023-10-13T14:04:33;25.80;66.10
11043;DHT22;5574;48.786;10.120;2023-10-13T14:06:59;25.80;66.00
11043;DHT22;5574;48.786;10.120;2023-10-13T14:09:32;25.80;64.90
11043;DHT22;5574;48.786;10.120;2023-10-13T14:12:01;25.80;64.30
11043;DHT22;5574;48.786;10.120;2023-10-13T14:14:46;25.80;62.40
11043;DHT22;5574;48.786;10.120;2023-10-13T14:17:16;25.80;70.10
11043;DHT22;5574;48.786;10.120;2023-10-13T14:19:44;25.70;71.50
11043;DHT22;5574;48.786;10.120;2023-10-13T14:22:11;25.70;67.70
11043;DHT22;5574;48.786;10.120;2023-10-13T14:24:38;25.60;69.40
11043;DHT22;5574;48.786;10.120;2023-10-13T14:27:12;25.50;71.10
11043;DHT22;5574;48.786;10.120;2023-10-13T14:29:43;25.50;69.20
11043;DHT22;5574;48.786;10.120;2023-10-13T14:32:11;25.50;66.50
11043;DHT22;5574;48.786;10.120;2023-10-13T14:34:39;25.50;66.80
11043;DHT22;5574;48.786;10.120;2023-10-13T14:37:08;25.50;67.40
11043;DHT22;5574;48.786;10.120;2023-10-13T14:39:38;25.40;68.70
11043;DHT22;5574;48.786;10.120;2023-10-13T14:42:05;25.40;77.90
11043;DHT22;5574;48.786;10.120;2023-10-13T14:44:32;25.30;77.50
11043;DHT22;5574;48.786;10.120;2023-10-13T14:46:59;25.20;78.10
11043;DHT22;5574;48.786;10.120;2023-10-13T14:49:26;25.20;78.00
11043;DHT22;5574;48.786;10.120;2023-10-13T14:51:52;25.10;78.90
11043;DHT22;5574;48.786;10.120;2023-10-13T14:54:22;25.00;82.00
11043;DHT22;5574;48.786;10.120;2023-10-13T14:56:59;24.90;79.00
11043;DHT22;5574;48.786;10.120;2023-10-13T14:59:26;24.90;78.80
11043;DHT22;5574;48.786;10.120;2023-10-13T15:01:53;24.70;80.30
11043;DHT22;5574;48.786;10.120;2023-10-13T15:04:19;24.70;82.40
11043;DHT22;5574;48.786;10.120;2023-10-13T15:06:50;24.50;79.50
11043;DHT22;5574;48.786;10.120;2023-10-13T15:09:16;24.50;79.80
11043;DHT22;5574;48.786;10.120;2023-10-13T15:11:50;24.40;80.70
11043;DHT22;5574;48.786;10.120;2023-10-13T15:14:18;24.40;81.10
11043;DHT22;5574;48.786;10.120;2023-10-13T15:16:48;24.20;80.90
11043;DHT22;5574;48.786;10.120;2023-10-13T15:19:15;24.20;81.30
11043;DHT22;5574;48.786;10.120;2023-10-13T15:21:43;24.10;80.90
11043;DHT22;5574;48.786;10.120;2023-10-13T15:24:14;24.00;79.10
11043;DHT22;5574;48.786;10.120;2023-10-13T15:26:42;23.90;81.60
11043;DHT22;5574;48.786;10.120;2023-10-13T15:29:15;23.80;81.00
11043;DHT22;5574;48.786;10.120;2023-10-13T15:31:43;23.80;80.50
11043;DHT22;5574;48.786;10.120;2023-10-13T15:34:20;23.70;83.60
11043;DHT22;5574;48.786;10.120;2023-10-13T15:36:48;23.50;83.20
11043;DHT22;5574;48.786;10.120;2023-10-13T15:39:18;23.50;83.30
11043;DHT22;5574;48.786;10.120;2023-10-13T15:41:49;23.40;80.60
11043;DHT22;5574;48.786;10.120;2023-10-13T15:44:19;23.30;84.40
11043;DHT22;5574;48.786;10.120;2023-10-13T15:46:52;23.20;85.60
11043;DHT22;5574;48.786;10.120;2023-10-13T15:49:19;23.10;86.60
11043;DHT22;5574;48.786;10.120;2023-10-13T15:51:46;23.00;86.40
11043;DHT22;5574;48.786;10.120;2023-10-13T15:54:13;22.90;87.30
11043;DHT22;5574;48.786;10.120;2023-10-13T15:56:41;22.80;87.20
11043;DHT22;5574;48.786;10.120;2023-10-13T15:59:08;22.60;89.10
11043;DHT22;5574;48.786;10.120;2023-10-13T16:01:36;22.50;90.20
11043;DHT22;5574;48.786;10.120;2023-10-13T16:04:05;22.40;87.40
11043;DHT22;5574;48.786;10.120;2023-10-13T16:06:37;22.30;93.30
11043;DHT22;5574;48.786;10.120;2023-10-13T16:09:04;22.20;89.20